sensor_id;sensor_type;location;lat;lon;timestamp;P1;durP1;ratioP1;P2;durP2;ratioP2
70078;SDS011;57451;52.496;13.456;2022-12-07T00:01:53;14.77;;;5.47;;
70078;SDS011;57451;52.496;13.456;2022-12-07T00:04:20;13.68;;;5.13;;
70078;SDS011;57451;52.496;13.456;2022-12-07T00:06:50;15.07;;;5.82;;
70078;SDS011;57451;52.496;13.456;2022-12-07T00:09:20;14.85;;;5.70;;
70078;SDS011;57451;52.496;13.456;2022-12-07T00:11:49;14.10;;;5.65;;
70078;SDS011;57451;52.496;13.456;2022-12-07T00:14:17;11.87;;;5.53;;
70078;SDS011;57451;52.496;13.456;2022-12-07T00:16:45;11.68;;;5.43;;
70078;SDS011;57451;52.496;13.456;2022-12-07T00:19:16;11.10;;;5.03;;
70078;SDS011;57451;52.496;13.456;2022-12-07T00:21:43;13.13;;;5.40;;
70078;SDS011;57451;52.496;13.456;2022-12-07T00:24:11;14.63;;;6.00;;
70078;SDS011;57451;52.496;13.456;2022-12-07T00:26:39;9.97;;;4.67;;
70078;SDS011;57451;52.496;13.456;2022-12-07T00:29:09;11.73;;;5.90;;
70078;SDS011;57451;52.496;13.456;2022-12-07T00:31:39;12.07;;;6.32;;
70078;SDS011;57451;52.496;13.456;2022-12-07T00:34:07;11.18;;;5.05;;
70078;SDS011;57451;52.496;13.456;2022-12-07T00:36:40;12.55;;;5.07;;
70078;SDS011;57451;52.496;13.456;2022-12-07T00:39:08;11.40;;;5.20;;
70078;SDS011;57451;52.496;13.456;2022-12-07T00:41:35;11.60;;;5.35;;
70078;SDS011;57451;52.496;13.456;2022-12-07T00:44:03;13.20;;;5.88;;
70078;SDS011;57451;52.496;13.456;2022-12-07T00:46:30;11.93;;;5.65;;
70078;SDS011;57451;52.496;13.456;2022-12-07T00:48:58;12.65;;;5.78;;
70078;SDS011;57451;52.496;13.456;2022-12-07T00:51:25;9.40;;;4.27;;
70078;SDS011;57451;52.496;13.456;2022-12-07T00:53:54;11.50;;;5.32;;
70078;SDS011;57451;52.496;13.456;2022-12-07T00:56:22;11.38;;;5.15;;
70078;SDS011;57451;52.496;13.456;2022-12-07T00:58:51;10.95;;;4.90;;
70078;SDS011;57451;52.496;13.456;2022-12-07T01:01:19;10.85;;;4.32;;
70078;SDS011;57451;52.496;13.456;2022-12-07T01:03:47;10.47;;;4.80;;
70078;SDS011;57451;52.496;13.456;2022-12-07T01:06:14;9.90;;;4.65;;
70078;SDS011;57451;52.496;13.456;2022-12-07T01:08:43;10.65;;;4.90;;
70078;SDS011;57451;52.496;13.456;2022-12-07T01:11:13;10.95;;;4.97;;
70078;SDS011;57451;52.496;13.456;2022-12-07T01:13:41;12.68;;;5.63;;
70078;SDS011;57451;52.496;13.456;2022-12-07T01:16:09;8.87;;;4.80;;
70078;SDS011;57451;52.496;13.456;2022-12-07T01:18:39;10.15;;;4.32;;
70078;SDS011;57451;52.496;13.456;2022-12-07T01:21:09;10.02;;;4.78;;
70078;SDS011;57451;52.496;13.456;2022-12-07T01:23:39;10.35;;;4.90;;
70078;SDS011;57451;52.496;13.456;2022-12-07T01:26:07;10.77;;;4.65;;
70078;SDS011;57451;52.496;13.456;2022-12-07T01:28:38;9.77;;;5.00;;
70078;SDS011;57451;52.496;13.456;2022-12-07T01:31:07;9.68;;;4.80;;
70078;SDS011;57451;52.496;13.456;2022-12-07T01:33:38;9.35;;;4.80;;
70078;SDS011;57451;52.496;13.456;2022-12-07T01:36:06;11.00;;;4.78;;
70078;SDS011;57451;52.496;13.456;2022-12-07T01:38:35;8.77;;;4.82;;
70078;SDS011;57451;52.496;13.456;2022-12-07T01:41:02;10.77;;;4.57;;
70078;SDS011;57451;52.496;13.456;2022-12-07T01:43:31;7.68;;;4.05;;
70078;SDS011;57451;52.496;13.456;2022-12-07T01:46:01;10.90;;;4.75;;
70078;SDS011;57451;52.496;13.456;2022-12-07T01:48:30;9.63;;;4.45;;
70078;SDS011;57451;52.496;13.456;2022-12-07T01:51:02;9.02;;;3.83;;
70078;SDS011;57451;52.496;13.456;2022-12-07T01:53:32;8.43;;;3.87;;
70078;SDS011;57451;52.496;13.456;2022-12-07T01:56:02;9.27;;;4.22;;
70078;SDS011;57451;52.496;13.456;2022-12-07T01:58:29;8.40;;;3.85;;
70078;SDS011;57451;52.496;13.456;2022-12-07T02:00:57;7.95;;;3.97;;
70078;SDS011;57451;52.496;13.456;2022-12-07T02:03:27;8.30;;;4.38;;
70078;SDS011;57451;52.496;13.456;2022-12-07T02:05:58;8.00;;;3.60;;
70078;SDS011;57451;52.496;13.456;2022-12-07T02:08:26;8.55;;;3.70;;
70078;SDS011;57451;52.496;13.456;2022-12-07T02:10:54;9.75;;;4.47;;
70078;SDS011;57451;52.496;13.456;2022-12-07T02:13:25;6.88;;;3.47;;
70078;SDS011;57451;52.496;13.456;2022-12-07T02:15:59;9.13;;;3.83;;
70078;SDS011;57451;52.496;13.456;2022-12-07T02:18:41;8.30;;;3.93;;
70078;SDS011;57451;52.496;13.456;2022-12-07T02:21:16;8.80;;;3.75;;
70078;SDS011;57451;52.496;13.456;2022-12-07T02:24:03;7.05;;;3.05;;
70078;SDS011;57451;52.496;13.456;2022-12-07T02:27:03;8.07;;;3.42;;
70078;SDS011;57451;52.496;13.456;2022-12-07T02:29:51;8.98;;;3.50;;
70078;SDS011;57451;52.496;13.456;2022-12-07T02:32:24;6.87;;;3.20;;
70078;SDS011;57451;52.496;13.456;2022-12-07T02:34:55;7.97;;;3.63;;
70078;SDS011;57451;52.496;13.456;2022-12-07T02:37:29;7.65;;;3.25;;
70078;SDS011;57451;52.496;13.456;2022-12-07T02:40:04;7.18;;;3.25;;
70078;SDS011;57451;52.496;13.456;2022-12-07T02:42:37;8.68;;;3.60;;
70078;SDS011;57451;52.496;13.456;2022-12-07T02:45:10;8.97;;;3.53;;
70078;SDS011;57451;52.496;13.456;2022-12-07T02:47:40;7.88;;;3.28;;
70078;SDS011;57451;52.496;13.456;2022-12-07T02:50:10;7.50;;;3.45;;
70078;SDS011;57451;52.496;13.456;2022-12-07T02:52:38;8.68;;;3.85;;
70078;SDS011;57451;52.496;13.456;2022-12-07T02:55:06;8.25;;;3.95;;
70078;SDS011;57451;52.496;13.456;2022-12-07T02:57:40;7.87;;;3.93;;
70078;SDS011;57451;52.496;13.456;2022-12-07T03:00:18;8.93;;;4.07;;
70078;SDS011;57451;52.496;13.456;2022-12-07T03:02:49;8.52;;;3.78;;
70078;SDS011;57451;52.496;13.456;2022-12-07T03:05:25;9.27;;;4.22;;
70078;SDS011;57451;52.496;13.456;2022-12-07T03:08:05;8.68;;;4.00;;
70078;SDS011;57451;52.496;13.456;2022-12-07T03:10:40;8.50;;;3.93;;
70078;SDS011;57451;52.496;13.456;2022-12-07T03:13:16;8.77;;;3.95;;
70078;SDS011;57451;52.496;13.456;2022-12-07T03:15:51;9.23;;;4.10;;
70078;SDS011;57451;52.496;13.456;2022-12-07T03:18:25;9.68;;;4.20;;
70078;SDS011;57451;52.496;13.456;2022-12-07T03:20:57;8.07;;;4.45;;
70078;SDS011;57451;52.496;13.456;2022-12-07T03:23:28;10.17;;;3.80;;
70078;SDS011;57451;52.496;13.456;2022-12-07T03:26:00;9.43;;;4.00;;
70078;SDS011;57451;52.496;13.456;2022-12-07T03:28:31;9.68;;;3.90;;
70078;SDS011;57451;52.496;13.456;2022-12-07T03:31:03;9.50;;;4.20;;
70078;SDS011;57451;52.496;13.456;2022-12-07T03:33:36;7.75;;;3.58;;
70078;SDS011;57451;52.496;13.456;2022-12-07T03:36:10;8.73;;;3.93;;
70078;SDS011;57451;52.496;13.456;2022-12-07T03:38:42;9.57;;;4.45;;
70078;SDS011;57451;52.496;13.456;2022-12-07T03:41:14;10.50;;;4.15;;
70078;SDS011;57451;52.496;13.456;2022-12-07T03:43:45;8.35;;;3.90;;
70078;SDS011;57451;52.496;13.456;2022-12-07T03:46:17;9.73;;;4.47;;
70078;SDS011;57451;52.496;13.456;2022-12-07T03:48:51;9.47;;;3.97;;
70078;SDS011;57451;52.496;13.456;2022-12-07T03:51:26;9.25;;;4.10;;
70078;SDS011;57451;52.496;13.456;2022-12-07T03:53:58;7.65;;;4.10;;
70078;SDS011;57451;52.496;13.456;2022-12-07T03:56:32;10.23;;;4.60;;
70078;SDS011;57451;52.496;13.456;2022-12-07T03:59:01;10.52;;;4.97;;
70078;SDS011;57451;52.496;13.456;2022-12-07T04:01:29;12.03;;;4.43;;
70078;SDS011;57451;52.496;13.456;2022-12-07T04:03:58;10.43;;;5.03;;
70078;SDS011;57451;52.496;13.456;2022-12-07T04:06:26;10.90;;;5.10;;
70078;SDS011;57451;52.496;13.456;2022-12-07T04:08:53;10.38;;;4.43;;
70078;SDS011;57451;52.496;13.456;2022-12-07T04:11:20;8.88;;;4.53;;
70078;SDS011;57451;52.496;13.456;2022-12-07T04:13:47;11.13;;;5.10;;
70078;SDS011;57451;52.496;13.456;2022-12-07T04:16:35;12.43;;;5.13;;
70078;SDS011;57451;52.496;13.456;2022-12-07T04:19:10;10.15;;;4.57;;
70078;SDS011;57451;52.496;13.456;2022-12-07T04:21:37;14.40;;;5.45;;
70078;SDS011;57451;52.496;13.456;2022-12-07T04:24:05;24.52;;;7.38;;
70078;SDS011;57451;52.496;13.456;2022-12-07T04:26:32;11.73;;;5.23;;
70078;SDS011;57451;52.496;13.456;2022-12-07T04:29:00;15.00;;;5.85;;
70078;SDS011;57451;52.496;13.456;2022-12-07T04:31:34;11.68;;;5.60;;
70078;SDS011;57451;52.496;13.456;2022-12-07T04:34:02;12.07;;;5.20;;
70078;SDS011;57451;52.496;13.456;2022-12-07T04:36:30;12.27;;;5.70;;
70078;SDS011;57451;52.496;13.456;2022-12-07T04:38:58;14.13;;;6.73;;
70078;SDS011;57451;52.496;13.456;2022-12-07T04:41:25;15.07;;;6.78;;
70078;SDS011;57451;52.496;13.456;2022-12-07T04:43:56;12.75;;;5.97;;
70078;SDS011;57451;52.496;13.456;2022-12-07T04:46:25;14.75;;;7.22;;
70078;SDS011;57451;52.496;13.456;2022-12-07T04:48:55;14.52;;;6.72;;
70078;SDS011;57451;52.496;13.456;2022-12-07T04:51:23;15.73;;;6.70;;
70078;SDS011;57451;52.496;13.456;2022-12-07T04:53:52;15.15;;;6.60;;
70078;SDS011;57451;52.496;13.456;2022-12-07T04:56:20;14.98;;;7.68;;
70078;SDS011;57451;52.496;13.456;2022-12-07T04:58:47;13.15;;;6.13;;
70078;SDS011;57451;52.496;13.456;2022-12-07T05:01:16;14.27;;;6.85;;
70078;SDS011;57451;52.496;13.456;2022-12-07T05:03:44;18.57;;;7.57;;
70078;SDS011;57451;52.496;13.456;2022-12-07T05:06:13;16.58;;;6.97;;
70078;SDS011;57451;52.496;13.456;2022-12-07T05:08:41;17.80;;;8.02;;
70078;SDS011;57451;52.496;13.456;2022-12-07T05:11:09;17.27;;;7.57;;
70078;SDS011;57451;52.496;13.456;2022-12-07T05:13:57;18.20;;;8.18;;
70078;SDS011;57451;52.496;13.456;2022-12-07T05:16:24;17.10;;;7.77;;
70078;SDS011;57451;52.496;13.456;2022-12-07T05:18:52;18.38;;;7.88;;
70078;SDS011;57451;52.496;13.456;2022-12-07T05:21:21;19.23;;;8.20;;
70078;SDS011;57451;52.496;13.456;2022-12-07T05:23:48;18.60;;;8.23;;
70078;SDS011;57451;52.496;13.456;2022-12-07T05:26:16;20.38;;;8.55;;
70078;SDS011;57451;52.496;13.456;2022-12-07T05:28:43;21.90;;;9.13;;
70078;SDS011;57451;52.496;13.456;2022-12-07T05:31:10;19.35;;;8.45;;
70078;SDS011;57451;52.496;13.456;2022-12-07T05:33:37;20.48;;;9.57;;
70078;SDS011;57451;52.496;13.456;2022-12-07T05:36:05;20.55;;;8.85;;
70078;SDS011;57451;52.496;13.456;2022-12-07T05:38:35;18.58;;;8.07;;
70078;SDS011;57451;52.496;13.456;2022-12-07T05:41:02;20.03;;;7.97;;
70078;SDS011;57451;52.496;13.456;2022-12-07T05:43:31;20.13;;;9.15;;
70078;SDS011;57451;52.496;13.456;2022-12-07T05:45:58;22.13;;;8.90;;
70078;SDS011;57451;52.496;13.456;2022-12-07T05:48:26;20.98;;;9.35;;
70078;SDS011;57451;52.496;13.456;2022-12-07T05:50:53;19.75;;;8.52;;
70078;SDS011;57451;52.496;13.456;2022-12-07T05:53:20;19.33;;;9.27;;
70078;SDS011;57451;52.496;13.456;2022-12-07T05:55:51;17.10;;;7.43;;
70078;SDS011;57451;52.496;13.456;2022-12-07T05:58:18;22.10;;;9.15;;
70078;SDS011;57451;52.496;13.456;2022-12-07T06:01:05;17.20;;;8.10;;
70078;SDS011;57451;52.496;13.456;2022-12-07T06:03:32;23.77;;;9.73;;
70078;SDS011;57451;52.496;13.456;2022-12-07T06:05:59;20.93;;;9.10;;
70078;SDS011;57451;52.496;13.456;2022-12-07T06:08:27;22.02;;;9.15;;
70078;SDS011;57451;52.496;13.456;2022-12-07T06:10:55;21.83;;;9.40;;
70078;SDS011;57451;52.496;13.456;2022-12-07T06:13:41;23.42;;;9.52;;
70078;SDS011;57451;52.496;13.456;2022-12-07T06:16:13;20.98;;;9.02;;
70078;SDS011;57451;52.496;13.456;2022-12-07T06:18:40;26.80;;;9.87;;
70078;SDS011;57451;52.496;13.456;2022-12-07T06:21:07;19.85;;;8.25;;
70078;SDS011;57451;52.496;13.456;2022-12-07T06:23:35;24.30;;;10.32;;
70078;SDS011;57451;52.496;13.456;2022-12-07T06:26:03;25.52;;;10.32;;
70078;SDS011;57451;52.496;13.456;2022-12-07T06:28:31;24.17;;;10.27;;
70078;SDS011;57451;52.496;13.456;2022-12-07T06:30:58;25.37;;;10.87;;
70078;SDS011;57451;52.496;13.456;2022-12-07T06:33:26;25.30;;;11.27;;
70078;SDS011;57451;52.496;13.456;2022-12-07T06:35:53;20.77;;;9.13;;
70078;SDS011;57451;52.496;13.456;2022-12-07T06:38:21;20.65;;;8.68;;
70078;SDS011;57451;52.496;13.456;2022-12-07T06:40:48;22.17;;;9.23;;
70078;SDS011;57451;52.496;13.456;2022-12-07T06:43:17;21.90;;;9.30;;
70078;SDS011;57451;52.496;13.456;2022-12-07T06:45:44;17.90;;;8.40;;
70078;SDS011;57451;52.496;13.456;2022-12-07T06:48:11;20.20;;;9.23;;
70078;SDS011;57451;52.496;13.456;2022-12-07T06:50:39;17.67;;;7.68;;
70078;SDS011;57451;52.496;13.456;2022-12-07T06:53:07;21.02;;;9.57;;
70078;SDS011;57451;52.496;13.456;2022-12-07T06:55:35;22.43;;;10.03;;
70078;SDS011;57451;52.496;13.456;2022-12-07T06:58:02;19.90;;;9.38;;
70078;SDS011;57451;52.496;13.456;2022-12-07T07:00:31;22.83;;;9.50;;
70078;SDS011;57451;52.496;13.456;2022-12-07T07:02:58;23.58;;;9.85;;
70078;SDS011;57451;52.496;13.456;2022-12-07T07:05:26;22.60;;;9.35;;
70078;SDS011;57451;52.496;13.456;2022-12-07T07:07:53;19.83;;;9.80;;
70078;SDS011;57451;52.496;13.456;2022-12-07T07:10:41;21.27;;;10.00;;
70078;SDS011;57451;52.496;13.456;2022-12-07T07:13:08;23.63;;;10.60;;
70078;SDS011;57451;52.496;13.456;2022-12-07T07:15:37;23.88;;;10.13;;
70078;SDS011;57451;52.496;13.456;2022-12-07T07:18:11;23.60;;;10.75;;
70078;SDS011;57451;52.496;13.456;2022-12-07T07:20:39;26.10;;;11.10;;
70078;SDS011;57451;52.496;13.456;2022-12-07T07:23:06;20.55;;;9.30;;
70078;SDS011;57451;52.496;13.456;2022-12-07T07:25:33;27.55;;;11.32;;
70078;SDS011;57451;52.496;13.456;2022-12-07T07:28:01;26.70;;;11.30;;
70078;SDS011;57451;52.496;13.456;2022-12-07T07:30:28;20.50;;;9.18;;
70078;SDS011;57451;52.496;13.456;2022-12-07T07:32:57;21.60;;;10.20;;
70078;SDS011;57451;52.496;13.456;2022-12-07T07:35:25;25.50;;;11.15;;
70078;SDS011;57451;52.496;13.456;2022-12-07T07:37:53;22.27;;;9.75;;
70078;SDS011;57451;52.496;13.456;2022-12-07T07:40:21;22.30;;;10.38;;
70078;SDS011;57451;52.496;13.456;2022-12-07T07:42:49;19.20;;;8.40;;
70078;SDS011;57451;52.496;13.456;2022-12-07T07:45:17;19.97;;;8.20;;
70078;SDS011;57451;52.496;13.456;2022-12-07T07:47:45;15.90;;;7.05;;
70078;SDS011;57451;52.496;13.456;2022-12-07T07:50:13;18.30;;;8.27;;
70078;SDS011;57451;52.496;13.456;2022-12-07T07:52:41;17.98;;;7.75;;
70078;SDS011;57451;52.496;13.456;2022-12-07T07:55:09;14.82;;;7.38;;
70078;SDS011;57451;52.496;13.456;2022-12-07T07:57:37;16.70;;;7.50;;
70078;SDS011;57451;52.496;13.456;2022-12-07T08:00:07;21.90;;;8.07;;
70078;SDS011;57451;52.496;13.456;2022-12-07T08:02:40;18.77;;;8.05;;
70078;SDS011;57451;52.496;13.456;2022-12-07T08:05:10;15.77;;;7.13;;
70078;SDS011;57451;52.496;13.456;2022-12-07T08:07:40;17.40;;;7.50;;
70078;SDS011;57451;52.496;13.456;2022-12-07T08:10:08;13.97;;;5.90;;
70078;SDS011;57451;52.496;13.456;2022-12-07T08:12:37;13.48;;;6.32;;
70078;SDS011;57451;52.496;13.456;2022-12-07T08:15:25;11.43;;;5.82;;
70078;SDS011;57451;52.496;13.456;2022-12-07T08:17:53;9.13;;;4.45;;
70078;SDS011;57451;52.496;13.456;2022-12-07T08:20:21;12.15;;;5.47;;
70078;SDS011;57451;52.496;13.456;2022-12-07T08:22:49;14.17;;;6.23;;
70078;SDS011;57451;52.496;13.456;2022-12-07T08:25:17;12.85;;;6.10;;
70078;SDS011;57451;52.496;13.456;2022-12-07T08:27:44;13.30;;;5.38;;
70078;SDS011;57451;52.496;13.456;2022-12-07T08:30:12;11.35;;;5.30;;
70078;SDS011;57451;52.496;13.456;2022-12-07T08:32:39;11.10;;;4.60;;
70078;SDS011;57451;52.496;13.456;2022-12-07T08:35:07;10.33;;;4.50;;
70078;SDS011;57451;52.496;13.456;2022-12-07T08:37:35;12.77;;;5.28;;
70078;SDS011;57451;52.496;13.456;2022-12-07T08:40:04;9.50;;;4.78;;
70078;SDS011;57451;52.496;13.456;2022-12-07T08:42:33;10.38;;;4.32;;
70078;SDS011;57451;52.496;13.456;2022-12-07T08:45:08;12.30;;;5.30;;
70078;SDS011;57451;52.496;13.456;2022-12-07T08:47:37;6.70;;;3.73;;
70078;SDS011;57451;52.496;13.456;2022-12-07T08:50:08;9.30;;;4.03;;
70078;SDS011;57451;52.496;13.456;2022-12-07T08:52:37;7.95;;;4.05;;
70078;SDS011;57451;52.496;13.456;2022-12-07T08:55:08;6.07;;;2.85;;
70078;SDS011;57451;52.496;13.456;2022-12-07T08:57:36;7.43;;;2.72;;
70078;SDS011;57451;52.496;13.456;2022-12-07T09:00:05;8.13;;;2.90;;
70078;SDS011;57451;52.496;13.456;2022-12-07T09:02:34;7.07;;;2.40;;
70078;SDS011;57451;52.496;13.456;2022-12-07T09:05:02;5.63;;;2.72;;
70078;SDS011;57451;52.496;13.456;2022-12-07T09:07:30;4.53;;;1.52;;
70078;SDS011;57451;52.496;13.456;2022-12-07T09:10:00;3.90;;;1.50;;
70078;SDS011;57451;52.496;13.456;2022-12-07T09:12:29;3.97;;;1.53;;
70078;SDS011;57451;52.496;13.456;2022-12-07T09:14:57;4.28;;;1.75;;
70078;SDS011;57451;52.496;13.456;2022-12-07T09:17:24;5.15;;;1.98;;
70078;SDS011;57451;52.496;13.456;2022-12-07T09:19:51;6.38;;;2.03;;
70078;SDS011;57451;52.496;13.456;2022-12-07T09:22:19;4.75;;;1.98;;
70078;SDS011;57451;52.496;13.456;2022-12-07T09:24:46;4.17;;;1.87;;
70078;SDS011;57451;52.496;13.456;2022-12-07T09:27:13;4.40;;;1.45;;
70078;SDS011;57451;52.496;13.456;2022-12-07T09:29:42;5.95;;;1.58;;
70078;SDS011;57451;52.496;13.456;2022-12-07T09:32:09;4.57;;;2.00;;
70078;SDS011;57451;52.496;13.456;2022-12-07T09:34:37;4.78;;;1.90;;
70078;SDS011;57451;52.496;13.456;2022-12-07T09:37:05;6.10;;;2.30;;
70078;SDS011;57451;52.496;13.456;2022-12-07T09:39:33;5.32;;;1.65;;
70078;SDS011;57451;52.496;13.456;2022-12-07T09:42:02;3.67;;;1.55;;
70078;SDS011;57451;52.496;13.456;2022-12-07T09:44:30;5.55;;;2.00;;
70078;SDS011;57451;52.496;13.456;2022-12-07T09:47:00;4.13;;;1.80;;
70078;SDS011;57451;52.496;13.456;2022-12-07T09:49:28;4.17;;;1.40;;
70078;SDS011;57451;52.496;13.456;2022-12-07T09:51:59;4.43;;;1.90;;
70078;SDS011;57451;52.496;13.456;2022-12-07T09:54:28;5.28;;;1.90;;
70078;SDS011;57451;52.496;13.456;2022-12-07T09:56:58;5.82;;;1.80;;
70078;SDS011;57451;52.496;13.456;2022-12-07T09:59:25;4.90;;;1.67;;
70078;SDS011;57451;52.496;13.456;2022-12-07T10:01:56;3.27;;;1.37;;
70078;SDS011;57451;52.496;13.456;2022-12-07T10:04:50;4.30;;;1.85;;
70078;SDS011;57451;52.496;13.456;2022-12-07T10:07:18;3.80;;;1.52;;
70078;SDS011;57451;52.496;13.456;2022-12-07T10:09:45;4.05;;;1.50;;
70078;SDS011;57451;52.496;13.456;2022-12-07T10:12:13;5.43;;;1.58;;
70078;SDS011;57451;52.496;13.456;2022-12-07T10:14:52;5.93;;;1.53;;
70078;SDS011;57451;52.496;13.456;2022-12-07T10:17:38;4.70;;;1.60;;
70078;SDS011;57451;52.496;13.456;2022-12-07T10:20:10;4.53;;;1.50;;
70078;SDS011;57451;52.496;13.456;2022-12-07T10:22:54;4.50;;;1.55;;
70078;SDS011;57451;52.496;13.456;2022-12-07T10:25:28;4.60;;;2.00;;
70078;SDS011;57451;52.496;13.456;2022-12-07T10:28:00;4.97;;;1.50;;
70078;SDS011;57451;52.496;13.456;2022-12-07T10:30:29;4.03;;;1.58;;
70078;SDS011;57451;52.496;13.456;2022-12-07T10:32:59;6.05;;;1.70;;
70078;SDS011;57451;52.496;13.456;2022-12-07T10:35:27;4.13;;;1.70;;
70078;SDS011;57451;52.496;13.456;2022-12-07T10:37:56;5.25;;;2.10;;
70078;SDS011;57451;52.496;13.456;2022-12-07T10:40:26;5.20;;;2.03;;
70078;SDS011;57451;52.496;13.456;2022-12-07T10:43:03;5.40;;;2.25;;
70078;SDS011;57451;52.496;13.456;2022-12-07T10:45:32;5.07;;;2.20;;
70078;SDS011;57451;52.496;13.456;2022-12-07T10:48:10;5.75;;;1.77;;
70078;SDS011;57451;52.496;13.456;2022-12-07T10:50:47;5.38;;;2.42;;
70078;SDS011;57451;52.496;13.456;2022-12-07T10:53:36;5.43;;;1.87;;
70078;SDS011;57451;52.496;13.456;2022-12-07T10:56:26;5.97;;;2.53;;
70078;SDS011;57451;52.496;13.456;2022-12-07T10:59:23;6.15;;;2.05;;
70078;SDS011;57451;52.496;13.456;2022-12-07T11:02:08;4.93;;;2.25;;
70078;SDS011;57451;52.496;13.456;2022-12-07T11:04:54;5.20;;;2.40;;
70078;SDS011;57451;52.496;13.456;2022-12-07T11:07:33;5.20;;;2.40;;
70078;SDS011;57451;52.496;13.456;2022-12-07T11:10:11;6.85;;;3.00;;
70078;SDS011;57451;52.496;13.456;2022-12-07T11:12:54;6.38;;;2.88;;
70078;SDS011;57451;52.496;13.456;2022-12-07T11:15:46;7.22;;;3.28;;
70078;SDS011;57451;52.496;13.456;2022-12-07T11:18:26;7.57;;;3.33;;
70078;SDS011;57451;52.496;13.456;2022-12-07T11:21:03;7.90;;;3.20;;
70078;SDS011;57451;52.496;13.456;2022-12-07T11:23:40;5.70;;;2.33;;
70078;SDS011;57451;52.496;13.456;2022-12-07T11:26:18;5.47;;;2.78;;
70078;SDS011;57451;52.496;13.456;2022-12-07T11:28:59;5.60;;;2.42;;
70078;SDS011;57451;52.496;13.456;2022-12-07T11:31:44;8.10;;;3.33;;
70078;SDS011;57451;52.496;13.456;2022-12-07T11:34:22;4.87;;;2.20;;
70078;SDS011;57451;52.496;13.456;2022-12-07T11:36:57;6.13;;;2.55;;
70078;SDS011;57451;52.496;13.456;2022-12-07T11:39:28;6.78;;;3.17;;
70078;SDS011;57451;52.496;13.456;2022-12-07T11:42:01;4.32;;;1.90;;
70078;SDS011;57451;52.496;13.456;2022-12-07T11:44:37;7.55;;;3.20;;
70078;SDS011;57451;52.496;13.456;2022-12-07T11:47:13;6.70;;;3.20;;
70078;SDS011;57451;52.496;13.456;2022-12-07T11:49:45;6.05;;;3.50;;
70078;SDS011;57451;52.496;13.456;2022-12-07T11:52:22;8.23;;;3.08;;
70078;SDS011;57451;52.496;13.456;2022-12-07T11:54:57;11.00;;;4.50;;
70078;SDS011;57451;52.496;13.456;2022-12-07T11:57:28;7.15;;;3.70;;
70078;SDS011;57451;52.496;13.456;2022-12-07T12:00:01;6.83;;;2.57;;
70078;SDS011;57451;52.496;13.456;2022-12-07T12:02:32;6.63;;;2.90;;
70078;SDS011;57451;52.496;13.456;2022-12-07T12:05:05;7.53;;;3.08;;
70078;SDS011;57451;52.496;13.456;2022-12-07T12:07:41;6.28;;;2.90;;
70078;SDS011;57451;52.496;13.456;2022-12-07T12:10:36;7.10;;;3.05;;
70078;SDS011;57451;52.496;13.456;2022-12-07T12:13:16;8.67;;;2.93;;
70078;SDS011;57451;52.496;13.456;2022-12-07T12:16:22;6.32;;;2.88;;
70078;SDS011;57451;52.496;13.456;2022-12-07T12:19:19;7.53;;;3.40;;
70078;SDS011;57451;52.496;13.456;2022-12-07T12:21:54;6.68;;;3.17;;
70078;SDS011;57451;52.496;13.456;2022-12-07T12:24:26;7.63;;;2.75;;
70078;SDS011;57451;52.496;13.456;2022-12-07T12:26:59;6.10;;;2.47;;
70078;SDS011;57451;52.496;13.456;2022-12-07T12:29:31;5.63;;;2.58;;
70078;SDS011;57451;52.496;13.456;2022-12-07T12:32:05;6.55;;;2.90;;
70078;SDS011;57451;52.496;13.456;2022-12-07T12:34:38;7.13;;;2.33;;
70078;SDS011;57451;52.496;13.456;2022-12-07T12:58:43;5.60;;;2.15;;
70078;SDS011;57451;52.496;13.456;2022-12-07T13:10:25;5.78;;;1.92;;
70078;SDS011;57451;52.496;13.456;2022-12-07T13:13:03;7.15;;;2.42;;
70078;SDS011;57451;52.496;13.456;2022-12-07T13:15:52;6.18;;;2.15;;
70078;SDS011;57451;52.496;13.456;2022-12-07T13:18:22;6.80;;;2.13;;
70078;SDS011;57451;52.496;13.456;2022-12-07T13:20:52;7.70;;;2.35;;
70078;SDS011;57451;52.496;13.456;2022-12-07T13:23:22;6.00;;;1.88;;
70078;SDS011;57451;52.496;13.456;2022-12-07T13:26:04;5.60;;;1.83;;
70078;SDS011;57451;52.496;13.456;2022-12-07T13:28:45;5.93;;;2.17;;
70078;SDS011;57451;52.496;13.456;2022-12-07T13:31:17;4.53;;;1.60;;
70078;SDS011;57451;52.496;13.456;2022-12-07T13:33:58;4.53;;;1.92;;
70078;SDS011;57451;52.496;13.456;2022-12-07T13:36:27;7.32;;;1.85;;
70078;SDS011;57451;52.496;13.456;2022-12-07T13:38:58;6.78;;;2.13;;
70078;SDS011;57451;52.496;13.456;2022-12-07T13:41:27;7.93;;;2.25;;
70078;SDS011;57451;52.496;13.456;2022-12-07T13:43:59;7.67;;;1.87;;
70078;SDS011;57451;52.496;13.456;2022-12-07T13:46:42;7.68;;;2.30;;
70078;SDS011;57451;52.496;13.456;2022-12-07T13:49:18;7.43;;;2.13;;
70078;SDS011;57451;52.496;13.456;2022-12-07T13:51:48;5.18;;;2.30;;
70078;SDS011;57451;52.496;13.456;2022-12-07T13:54:16;5.20;;;1.70;;
70078;SDS011;57451;52.496;13.456;2022-12-07T13:56:47;4.13;;;1.20;;
70078;SDS011;57451;52.496;13.456;2022-12-07T13:59:17;6.78;;;1.48;;
70078;SDS011;57451;52.496;13.456;2022-12-07T14:01:48;5.05;;;1.58;;
70078;SDS011;57451;52.496;13.456;2022-12-07T14:04:17;7.18;;;2.10;;
70078;SDS011;57451;52.496;13.456;2022-12-07T14:06:47;4.25;;;1.50;;
70078;SDS011;57451;52.496;13.456;2022-12-07T14:09:17;6.23;;;1.43;;
70078;SDS011;57451;52.496;13.456;2022-12-07T14:11:47;6.25;;;1.52;;
70078;SDS011;57451;52.496;13.456;2022-12-07T14:14:16;6.97;;;2.00;;
70078;SDS011;57451;52.496;13.456;2022-12-07T14:16:56;5.13;;;1.88;;
70078;SDS011;57451;52.496;13.456;2022-12-07T14:19:46;7.55;;;1.88;;
70078;SDS011;57451;52.496;13.456;2022-12-07T14:22:20;3.90;;;1.27;;
70078;SDS011;57451;52.496;13.456;2022-12-07T14:24:50;6.55;;;2.13;;
70078;SDS011;57451;52.496;13.456;2022-12-07T14:27:24;6.97;;;2.00;;
70078;SDS011;57451;52.496;13.456;2022-12-07T14:29:57;7.53;;;1.90;;
70078;SDS011;57451;52.496;13.456;2022-12-07T14:32:26;5.35;;;2.22;;
70078;SDS011;57451;52.496;13.456;2022-12-07T14:34:56;5.70;;;1.77;;
70078;SDS011;57451;52.496;13.456;2022-12-07T14:37:25;6.05;;;1.80;;
70078;SDS011;57451;52.496;13.456;2022-12-07T14:39:54;7.82;;;2.33;;
70078;SDS011;57451;52.496;13.456;2022-12-07T14:42:21;6.75;;;2.50;;
70078;SDS011;57451;52.496;13.456;2022-12-07T14:44:51;7.72;;;2.70;;
70078;SDS011;57451;52.496;13.456;2022-12-07T14:47:18;6.40;;;1.97;;
70078;SDS011;57451;52.496;13.456;2022-12-07T14:50:08;5.07;;;1.70;;
70078;SDS011;57451;52.496;13.456;2022-12-07T14:52:38;6.13;;;1.83;;
70078;SDS011;57451;52.496;13.456;2022-12-07T14:55:27;6.75;;;1.75;;
70078;SDS011;57451;52.496;13.456;2022-12-07T14:57:56;5.72;;;1.80;;
70078;SDS011;57451;52.496;13.456;2022-12-07T15:00:24;4.83;;;1.80;;
70078;SDS011;57451;52.496;13.456;2022-12-07T15:02:53;6.40;;;1.83;;
70078;SDS011;57451;52.496;13.456;2022-12-07T15:05:22;7.25;;;1.83;;
70078;SDS011;57451;52.496;13.456;2022-12-07T15:07:50;8.07;;;2.72;;
70078;SDS011;57451;52.496;13.456;2022-12-07T15:10:19;5.03;;;1.90;;
70078;SDS011;57451;52.496;13.456;2022-12-07T15:12:50;6.83;;;2.10;;
70078;SDS011;57451;52.496;13.456;2022-12-07T15:15:17;6.00;;;2.17;;
70078;SDS011;57451;52.496;13.456;2022-12-07T15:17:45;7.97;;;2.00;;
70078;SDS011;57451;52.496;13.456;2022-12-07T15:20:13;7.57;;;1.63;;
70078;SDS011;57451;52.496;13.456;2022-12-07T15:22:44;6.05;;;1.88;;
70078;SDS011;57451;52.496;13.456;2022-12-07T15:25:12;8.03;;;2.20;;